createdAt,value
2022-08-01T00:00:24.638Z,3.00
2022-08-01T00:01:24.624Z,2.90
2022-08-01T00:02:24.682Z,3.00
2022-08-01T00:03:24.637Z,3.20
2022-08-01T00:04:24.595Z,3.10
2022-08-01T00:05:24.604Z,3.00
2022-08-01T00:06:24.593Z,3.20
2022-08-01T00:07:24.552Z,3.40
2022-08-01T00:08:24.529Z,3.20
2022-08-01T00:09:24.653Z,3.00
2022-08-01T00:10:24.530Z,3.30
2022-08-01T00:11:24.522Z,3.00
2022-08-01T00:12:24.478Z,3.10
2022-08-01T00:13:24.498Z,2.90
2022-08-01T00:14:32.232Z,2.90
2022-08-01T00:15:24.472Z,3.00
2022-08-01T00:16:24.432Z,3.30
2022-08-01T00:17:24.423Z,3.10
2022-08-01T00:18:24.422Z,3.30
2022-08-01T00:19:24.377Z,3.20
2022-08-01T00:20:24.369Z,3.20
2022-08-01T00:21:24.375Z,3.40
2022-08-01T00:22:24.356Z,3.10
2022-08-01T00:23:24.346Z,3.40
2022-08-01T00:24:24.319Z,3.70
2022-08-01T00:25:33.931Z,3.10
2022-08-01T00:26:24.322Z,3.60
2022-08-01T00:27:24.264Z,3.30
2022-08-01T00:28:24.266Z,3.80
2022-08-01T00:30:01.179Z,3.30
2022-08-01T00:30:24.265Z,3.30
2022-08-01T00:31:24.241Z,3.30
2022-08-01T00:32:24.203Z,3.20
2022-08-01T00:33:24.220Z,3.40
2022-08-01T00:34:24.237Z,3.60
2022-08-01T00:35:24.220Z,3.70
2022-08-01T00:36:24.151Z,3.50
2022-08-01T00:37:24.127Z,3.80
2022-08-01T00:38:24.148Z,3.50
2022-08-01T00:39:24.110Z,3.30
2022-08-01T00:40:24.132Z,3.20
2022-08-01T00:41:24.085Z,3.10
2022-08-01T00:42:24.069Z,3.20
2022-08-01T00:43:24.065Z,3.10
2022-08-01T00:44:24.041Z,3.40
2022-08-01T00:45:24.050Z,3.40
2022-08-01T00:46:24.016Z,3.40
2022-08-01T00:47:23.997Z,3.60
2022-08-01T00:48:23.989Z,3.30
2022-08-01T00:49:24.039Z,3.70
2022-08-01T00:50:24.814Z,3.20
2022-08-01T00:51:23.942Z,3.40
2022-08-01T00:52:23.935Z,3.40
2022-08-01T00:53:23.998Z,3.40
2022-08-01T00:54:23.910Z,3.70
2022-08-01T00:55:23.883Z,3.70
2022-08-01T00:56:23.881Z,3.40
2022-08-01T00:57:47.399Z,3.50
2022-08-01T00:58:24.164Z,3.30
2022-08-01T00:59:23.834Z,3.50
2022-08-01T01:00:27.188Z,3.50
2022-08-01T01:01:23.860Z,3.30
2022-08-01T01:02:23.800Z,3.30
2022-08-01T01:03:43.326Z,3.30
2022-08-01T01:04:23.797Z,3.50
2022-08-01T01:05:23.760Z,3.40
2022-08-01T01:06:23.780Z,3.40
2022-08-01T01:07:23.733Z,3.40
2022-08-01T01:08:23.715Z,3.60
2022-08-01T01:09:23.700Z,3.40
2022-08-01T01:10:23.688Z,3.40
2022-08-01T01:11:23.700Z,3.30
2022-08-01T01:12:23.657Z,3.20
2022-08-01T01:13:23.646Z,3.20
2022-08-01T01:14:23.649Z,3.30
2022-08-01T01:15:23.641Z,3.40
2022-08-01T01:16:23.628Z,3.00
2022-08-01T01:17:42.354Z,3.10
2022-08-01T01:18:23.590Z,3.20
2022-08-01T01:19:23.565Z,3.30
2022-08-01T01:20:23.554Z,3.10
2022-08-01T01:21:24.907Z,3.20
2022-08-01T01:22:23.521Z,3.10
2022-08-01T01:23:23.556Z,3.20
2022-08-01T01:24:23.511Z,3.40
2022-08-01T01:25:23.492Z,3.60
2022-08-01T01:26:23.500Z,3.60
2022-08-01T01:27:23.476Z,3.70
2022-08-01T01:28:23.451Z,3.40
2022-08-01T01:29:23.455Z,3.40
2022-08-01T01:30:23.423Z,3.60
2022-08-01T01:31:23.456Z,3.70
2022-08-01T01:32:28.784Z,3.40
2022-08-01T01:33:23.398Z,3.60
2022-08-01T01:34:23.369Z,3.60
2022-08-01T01:35:23.356Z,3.60
2022-08-01T01:36:23.365Z,3.40
2022-08-01T01:37:23.328Z,3.30
2022-08-01T01:38:23.326Z,3.20
2022-08-01T01:39:23.321Z,3.30
2022-08-01T01:40:23.281Z,3.50
2022-08-01T01:41:23.275Z,3.40
2022-08-01T01:42:23.273Z,3.40
2022-08-01T01:43:23.255Z,3.20
2022-08-01T01:44:23.270Z,3.00
2022-08-01T01:45:23.219Z,3.10
2022-08-01T01:46:23.211Z,3.10
2022-08-01T01:47:23.221Z,2.90
2022-08-01T01:48:23.174Z,3.00
2022-08-01T01:49:23.266Z,3.20
2022-08-01T01:50:23.148Z,3.00
2022-08-01T01:51:23.134Z,3.10
2022-08-01T01:52:23.121Z,3.00
2022-08-01T01:53:23.130Z,3.10
2022-08-01T01:54:23.092Z,3.20
2022-08-01T01:55:23.085Z,3.10
2022-08-01T01:56:23.079Z,3.20
2022-08-01T01:57:23.056Z,3.20
2022-08-01T01:58:23.069Z,3.40
2022-08-01T01:59:25.799Z,3.20
2022-08-01T02:00:23.039Z,3.00
2022-08-01T02:02:05.446Z,3.10
2022-08-01T02:02:23.014Z,3.30
2022-08-01T02:03:23.080Z,3.10
2022-08-01T02:04:22.956Z,3.20
2022-08-01T02:05:22.966Z,3.70
2022-08-01T02:06:22.931Z,3.40
2022-08-01T02:07:22.917Z,3.60
2022-08-01T02:08:22.924Z,3.70
2022-08-01T02:09:22.928Z,3.40
2022-08-01T02:10:22.906Z,3.60
2022-08-01T02:11:22.866Z,3.70
2022-08-01T02:12:22.848Z,3.80
2022-08-01T02:13:22.853Z,3.50
2022-08-01T02:14:22.822Z,3.60
2022-08-01T02:15:22.830Z,4.00
2022-08-01T02:16:22.809Z,3.70
2022-08-01T02:17:22.784Z,3.70
2022-08-01T02:18:23.968Z,3.70
2022-08-01T02:19:22.761Z,3.80
2022-08-01T02:20:22.770Z,3.80
2022-08-01T02:21:22.726Z,3.80
2022-08-01T02:22:22.710Z,4.10
2022-08-01T02:23:22.719Z,3.60
2022-08-01T02:24:22.691Z,3.60
2022-08-01T02:25:22.734Z,3.90
2022-08-01T02:26:22.657Z,3.80
2022-08-01T02:27:22.644Z,4.10
2022-08-01T02:28:22.632Z,3.70
2022-08-01T02:29:22.621Z,3.70
2022-08-01T02:30:22.630Z,3.90
2022-08-01T02:31:22.605Z,3.80
2022-08-01T02:32:22.590Z,3.70
2022-08-01T02:33:22.565Z,3.70
2022-08-01T02:34:22.632Z,3.50
2022-08-01T02:35:22.564Z,3.60
2022-08-01T02:36:29.665Z,3.60
2022-08-01T02:37:22.516Z,3.40
2022-08-01T02:38:22.505Z,3.70
2022-08-01T02:39:22.518Z,3.60
2022-08-01T02:40:22.501Z,3.60
2022-08-01T02:41:22.458Z,3.80
2022-08-01T02:42:22.467Z,3.60
2022-08-01T02:43:22.438Z,3.70
2022-08-01T02:44:22.447Z,3.60
2022-08-01T02:45:22.409Z,3.40
2022-08-01T02:46:22.390Z,3.50
2022-08-01T02:47:22.378Z,3.60
2022-08-01T02:48:22.373Z,3.80
2022-08-01T02:49:22.457Z,3.70
2022-08-01T02:50:22.364Z,3.60
2022-08-01T02:51:22.325Z,3.80
2022-08-01T02:52:22.308Z,4.00
2022-08-01T02:53:22.300Z,3.60
2022-08-01T02:54:22.310Z,3.40
2022-08-01T02:55:22.301Z,3.70
2022-08-01T02:56:22.265Z,3.80
2022-08-01T02:57:22.249Z,3.70
2022-08-01T02:58:22.235Z,3.90
2022-08-01T02:59:22.583Z,3.50
2022-08-01T03:00:24.646Z,3.50
2022-08-01T03:01:22.244Z,3.50
2022-08-01T03:02:22.177Z,3.70
2022-08-01T03:03:22.164Z,3.60
2022-08-01T03:04:22.150Z,3.80
2022-08-01T03:05:22.176Z,3.80
2022-08-01T03:06:22.164Z,3.70
2022-08-01T03:07:22.111Z,3.60
2022-08-01T03:08:22.091Z,3.90
2022-08-01T03:09:22.106Z,3.50
2022-08-01T03:10:22.067Z,3.60
2022-08-01T03:11:22.084Z,3.90
2022-08-01T03:12:22.039Z,3.80
2022-08-01T03:13:22.057Z,3.90
2022-08-01T03:14:22.030Z,3.90
2022-08-01T03:15:22.001Z,3.90
2022-08-01T03:16:22.017Z,3.80
2022-08-01T03:17:21.989Z,3.90
2022-08-01T03:18:21.956Z,4.20
2022-08-01T03:19:21.937Z,3.90
2022-08-01T03:20:22.041Z,4.30
2022-08-01T03:21:21.918Z,3.90
2022-08-01T03:22:21.919Z,4.20
2022-08-01T03:23:21.894Z,4.10
2022-08-01T03:24:21.886Z,4.00
2022-08-01T03:25:21.865Z,3.90
2022-08-01T03:26:21.872Z,4.00
2022-08-01T03:27:21.842Z,3.80
2022-08-01T03:28:21.817Z,3.80
2022-08-01T03:29:21.831Z,3.60
2022-08-01T03:30:21.806Z,3.60
2022-08-01T03:31:21.840Z,3.80
2022-08-01T03:32:21.799Z,3.60
2022-08-01T03:33:21.764Z,4.00
2022-08-01T03:34:21.735Z,4.00
2022-08-01T03:35:21.733Z,3.70
2022-08-01T03:36:21.723Z,4.20
2022-08-01T03:37:21.704Z,3.90
2022-08-01T03:38:21.709Z,4.20
2022-08-01T03:39:21.679Z,4.00
2022-08-01T03:40:21.686Z,4.10
2022-08-01T03:41:21.721Z,4.30
2022-08-01T03:42:21.639Z,4.30
2022-08-01T03:43:21.627Z,3.90
2022-08-01T03:44:21.652Z,4.60
2022-08-01T03:45:21.632Z,4.90
2022-08-01T03:46:21.614Z,4.00
2022-08-01T03:47:21.586Z,4.20
2022-08-01T03:48:21.550Z,3.60
2022-08-01T03:49:21.570Z,3.60
2022-08-01T03:50:21.570Z,3.30
2022-08-01T03:51:21.515Z,3.60
2022-08-01T03:52:21.525Z,3.80
2022-08-01T03:53:21.488Z,4.10
2022-08-01T03:54:21.476Z,4.20
2022-08-01T03:55:21.495Z,4.20
2022-08-01T03:56:21.455Z,3.90
2022-08-01T03:57:35.865Z,3.90
2022-08-01T03:58:21.420Z,4.20
2022-08-01T03:59:21.415Z,4.00
2022-08-01T04:00:21.417Z,4.20
2022-08-01T04:01:21.424Z,4.30
2022-08-01T04:02:22.857Z,4.10
2022-08-01T04:03:21.382Z,4.00
2022-08-01T04:04:21.332Z,3.80
2022-08-01T04:05:21.350Z,4.40
2022-08-01T04:06:21.343Z,4.10
2022-08-01T04:07:21.311Z,4.00
2022-08-01T04:08:21.305Z,4.10
2022-08-01T04:09:21.264Z,4.30
2022-08-01T04:10:21.256Z,3.90
2022-08-01T04:11:21.289Z,4.30
2022-08-01T04:12:21.256Z,4.20
2022-08-01T04:13:21.248Z,4.10
2022-08-01T04:14:21.198Z,4.30
2022-08-01T04:15:21.199Z,4.10
2022-08-01T04:16:21.182Z,4.40
2022-08-01T04:17:21.195Z,4.50
2022-08-01T04:18:21.160Z,4.40
2022-08-01T04:19:21.128Z,4.60
2022-08-01T04:20:21.131Z,4.60
2022-08-01T04:21:21.118Z,4.40
2022-08-01T04:22:21.105Z,4.50
2022-08-01T04:23:21.113Z,4.10
2022-08-01T04:24:21.055Z,4.50
2022-08-01T04:25:21.062Z,4.20
2022-08-01T04:26:21.038Z,4.50
2022-08-01T04:27:50.674Z,4.70
2022-08-01T04:28:21.090Z,4.50
2022-08-01T04:29:20.998Z,4.30
2022-08-01T04:30:21.219Z,4.40
2022-08-01T04:31:20.977Z,4.50
2022-08-01T04:32:20.976Z,4.50
2022-08-01T04:33:20.949Z,4.40
2022-08-01T04:34:20.952Z,5.00
2022-08-01T04:35:23.209Z,5.00
2022-08-01T04:36:20.906Z,4.70
2022-08-01T04:37:20.900Z,5.30
2022-08-01T04:38:20.875Z,5.40
2022-08-01T04:39:20.887Z,5.00
2022-08-01T04:40:20.847Z,4.60
2022-08-01T04:41:20.859Z,4.70
2022-08-01T04:42:25.215Z,4.70
2022-08-01T04:43:20.854Z,4.60
2022-08-01T04:44:20.788Z,4.40
2022-08-01T04:45:20.786Z,4.70
2022-08-01T04:46:20.772Z,4.60
2022-08-01T04:47:20.762Z,4.70
2022-08-01T04:48:22.702Z,4.80
2022-08-01T04:49:20.792Z,4.40
2022-08-01T04:50:20.714Z,6.00
2022-08-01T04:51:20.725Z,7.20
2022-08-01T04:52:24.659Z,5.10
2022-08-01T04:53:20.703Z,4.80
2022-08-01T04:54:20.649Z,4.40
2022-08-01T04:55:20.659Z,4.70
2022-08-01T04:56:20.628Z,4.60
2022-08-01T04:57:20.663Z,4.70
2022-08-01T04:58:20.634Z,4.70
2022-08-01T04:59:20.599Z,4.80
2022-08-01T05:00:20.576Z,4.60
2022-08-01T05:01:20.653Z,4.80
2022-08-01T05:02:20.546Z,4.30
2022-08-01T05:03:20.561Z,5.00
2022-08-01T05:04:20.526Z,4.90
2022-08-01T05:05:20.550Z,4.90
2022-08-01T05:06:20.525Z,4.70
2022-08-01T05:07:20.506Z,4.50
2022-08-01T05:08:20.475Z,5.10
2022-08-01T05:09:20.450Z,4.80
2022-08-01T05:10:20.442Z,5.00
2022-08-01T05:11:22.675Z,4.90
2022-08-01T05:12:20.443Z,5.00
2022-08-01T05:13:20.398Z,4.90
2022-08-01T05:14:20.391Z,4.70
2022-08-01T05:15:20.370Z,5.00
2022-08-01T05:16:20.412Z,5.40
2022-08-01T05:17:20.355Z,5.40
2022-08-01T05:18:27.715Z,5.10
2022-08-01T05:19:20.354Z,5.00
2022-08-01T05:20:20.341Z,5.00
2022-08-01T05:21:20.291Z,5.20
2022-08-01T05:22:20.282Z,5.00
2022-08-01T05:23:32.752Z,4.90
2022-08-01T05:24:20.263Z,4.90
2022-08-01T05:25:56.078Z,5.10
2022-08-01T05:26:20.236Z,5.10
2022-08-01T05:27:20.220Z,5.00
2022-08-01T05:28:20.194Z,5.00
2022-08-01T05:29:20.216Z,5.00
2022-08-01T05:30:20.174Z,5.40
2022-08-01T05:31:20.188Z,5.90
2022-08-01T05:32:20.144Z,5.30
2022-08-01T05:33:20.123Z,5.00
2022-08-01T05:34:20.119Z,5.10
2022-08-01T05:35:20.254Z,4.90
2022-08-01T05:36:20.111Z,4.50
2022-08-01T05:37:20.071Z,4.90
2022-08-01T05:38:20.069Z,4.70
2022-08-01T05:39:20.044Z,4.70
2022-08-01T05:40:20.029Z,5.30
2022-08-01T05:41:20.042Z,4.80
2022-08-01T05:42:20.009Z,4.60
2022-08-01T05:43:20.004Z,5.40
2022-08-01T05:44:19.988Z,5.80
2022-08-01T05:45:19.997Z,5.20
2022-08-01T05:46:19.954Z,4.90
2022-08-01T05:47:19.968Z,4.70
2022-08-01T05:48:19.936Z,4.60
2022-08-01T05:49:20.011Z,5.70
2022-08-01T05:50:19.915Z,4.80
2022-08-01T05:51:19.883Z,4.80
2022-08-01T05:52:19.874Z,5.10
2022-08-01T05:53:19.891Z,4.90
2022-08-01T05:54:19.846Z,5.00
2022-08-01T05:55:19.831Z,5.10
2022-08-01T05:56:19.826Z,5.00
2022-08-01T05:57:19.798Z,4.70
2022-08-01T05:58:19.813Z,5.20
2022-08-01T05:59:19.777Z,4.90
2022-08-01T06:00:19.788Z,4.80
2022-08-01T06:01:19.753Z,4.60
2022-08-01T06:02:19.852Z,4.80
2022-08-01T06:03:19.727Z,4.80
2022-08-01T06:04:19.759Z,4.90
2022-08-01T06:05:19.696Z,4.70
2022-08-01T06:06:19.690Z,4.90
2022-08-01T06:07:19.682Z,5.00
2022-08-01T06:08:19.703Z,4.90
2022-08-01T06:09:19.639Z,4.50
2022-08-01T06:10:19.638Z,4.30
2022-08-01T06:11:19.624Z,4.60
2022-08-01T06:12:19.609Z,4.30
2022-08-01T06:13:19.627Z,4.20
2022-08-01T06:14:19.569Z,4.40
2022-08-01T06:15:19.571Z,4.20
2022-08-01T06:16:19.556Z,4.20
2022-08-01T06:17:19.565Z,4.10
2022-08-01T06:18:19.565Z,4.20
2022-08-01T06:19:19.506Z,4.10
2022-08-01T06:20:19.530Z,4.10
2022-08-01T06:21:19.479Z,5.30
2022-08-01T06:22:19.498Z,4.20
2022-08-01T06:23:31.923Z,4.70
2022-08-01T06:24:19.458Z,4.20
2022-08-01T06:25:21.175Z,4.30
2022-08-01T06:26:19.417Z,4.50
2022-08-01T06:27:22.116Z,4.00
2022-08-01T06:28:19.417Z,4.20
2022-08-01T06:29:19.370Z,4.10
2022-08-01T06:30:19.362Z,4.20
2022-08-01T06:31:19.396Z,4.30
2022-08-01T06:32:27.330Z,4.10
2022-08-01T06:33:19.332Z,3.90
2022-08-01T06:34:19.330Z,5.10
2022-08-01T06:35:19.286Z,4.60
2022-08-01T06:36:19.281Z,4.40
2022-08-01T06:37:19.260Z,5.90
2022-08-01T06:38:19.279Z,4.80
2022-08-01T06:39:19.234Z,4.80
2022-08-01T06:40:19.228Z,4.70
2022-08-01T06:41:19.199Z,4.50
2022-08-01T06:42:19.196Z,3.90
2022-08-01T06:43:19.213Z,4.30
2022-08-01T06:44:19.184Z,4.50
2022-08-01T06:45:19.164Z,4.60
2022-08-01T06:46:19.143Z,4.00
2022-08-01T06:47:19.124Z,4.20
2022-08-01T06:48:19.156Z,3.70
2022-08-01T06:49:19.169Z,3.60
2022-08-01T06:50:19.098Z,3.90
2022-08-01T06:51:19.082Z,3.90
2022-08-01T06:52:19.061Z,3.80
2022-08-01T06:53:19.075Z,4.00
2022-08-01T06:54:19.039Z,3.60
2022-08-01T06:55:19.015Z,3.70
2022-08-01T06:56:19.029Z,3.80
2022-08-01T06:57:18.999Z,3.60
2022-08-01T06:58:19.010Z,4.00
2022-08-01T06:59:18.970Z,3.80
2022-08-01T07:00:18.959Z,3.90
2022-08-01T07:01:19.058Z,3.80
2022-08-01T07:02:18.953Z,3.60
2022-08-01T07:03:18.931Z,3.50
2022-08-01T07:04:18.907Z,3.70
2022-08-01T07:05:18.886Z,3.50
2022-08-01T07:06:18.906Z,3.80
2022-08-01T07:07:18.853Z,3.90
2022-08-01T07:08:18.869Z,3.70
2022-08-01T07:09:18.849Z,3.80
2022-08-01T07:10:18.817Z,4.20
2022-08-01T07:11:18.800Z,3.60
2022-08-01T07:12:18.822Z,3.90
2022-08-01T07:13:18.773Z,4.00
2022-08-01T07:14:18.767Z,3.60
2022-08-01T07:15:18.744Z,3.40
2022-08-01T07:16:18.747Z,3.50
2022-08-01T07:17:18.722Z,3.40
2022-08-01T07:18:18.739Z,4.20
2022-08-01T07:19:18.695Z,4.20
2022-08-01T07:20:18.680Z,3.90
2022-08-01T07:21:38.655Z,3.60
2022-08-01T07:22:23.328Z,3.60
2022-08-01T07:23:18.688Z,3.70
2022-08-01T07:24:20.844Z,3.60
2022-08-01T07:25:18.641Z,3.50
2022-08-01T07:26:18.606Z,3.50
2022-08-01T07:27:22.991Z,3.20
2022-08-01T07:28:18.575Z,3.50
2022-08-01T07:29:18.586Z,3.30
2022-08-01T07:30:18.546Z,3.10
2022-08-01T07:31:18.529Z,3.50
2022-08-01T07:32:18.521Z,3.20
2022-08-01T07:33:18.520Z,3.20
2022-08-01T07:34:18.527Z,3.10
2022-08-01T07:35:18.509Z,3.30
2022-08-01T07:36:18.497Z,3.30
2022-08-01T07:37:18.447Z,3.50
2022-08-01T07:38:18.444Z,3.70
2022-08-01T07:39:18.430Z,3.30
2022-08-01T07:40:18.442Z,3.20
2022-08-01T07:41:18.400Z,3.40
2022-08-01T07:42:18.389Z,3.70
2022-08-01T07:43:18.373Z,3.70
2022-08-01T07:44:18.364Z,3.30
2022-08-01T07:45:18.367Z,3.40
2022-08-01T07:46:18.346Z,3.30
2022-08-01T07:47:18.307Z,3.10
2022-08-01T07:48:18.301Z,3.30
2022-08-01T07:49:18.394Z,3.40
2022-08-01T07:50:18.307Z,3.50
2022-08-01T07:51:18.275Z,3.30
2022-08-01T07:52:18.650Z,3.10
2022-08-01T07:53:18.232Z,3.30
2022-08-01T07:54:18.227Z,3.30
2022-08-01T07:55:18.231Z,3.40
2022-08-01T07:56:18.195Z,3.00
2022-08-01T07:57:18.184Z,3.40
2022-08-01T07:58:18.210Z,2.90
2022-08-01T07:59:23.273Z,3.00
2022-08-01T08:00:18.147Z,3.00
2022-08-01T08:01:18.161Z,3.40
2022-08-01T08:02:18.290Z,3.10
2022-08-01T08:03:18.112Z,3.00
2022-08-01T08:04:18.114Z,2.90
2022-08-01T08:05:58.842Z,3.40
2022-08-01T08:06:18.068Z,2.90
2022-08-01T08:07:18.043Z,3.00
2022-08-01T08:08:18.061Z,3.20
2022-08-01T08:09:18.029Z,3.00
2022-08-01T08:10:18.052Z,2.90
2022-08-01T08:11:17.997Z,3.40
2022-08-01T08:12:17.982Z,3.00
2022-08-01T08:13:17.973Z,2.90
2022-08-01T08:14:17.985Z,3.30
2022-08-01T08:15:17.947Z,2.70
2022-08-01T08:16:17.934Z,2.90
2022-08-01T08:17:17.964Z,2.90
2022-08-01T08:18:17.914Z,2.60
2022-08-01T08:19:17.890Z,2.90
2022-08-01T08:20:17.878Z,3.00
2022-08-01T08:21:17.870Z,2.80
2022-08-01T08:22:17.886Z,2.80
2022-08-01T08:23:42.071Z,2.90
2022-08-01T08:24:17.841Z,2.70
2022-08-01T08:25:17.810Z,2.70
2022-08-01T08:26:17.801Z,2.70
2022-08-01T08:27:17.799Z,2.90
2022-08-01T08:28:17.778Z,2.70
2022-08-01T08:29:17.752Z,2.80
2022-08-01T08:30:17.743Z,2.90
2022-08-01T08:31:25.609Z,2.60
2022-08-01T08:32:17.817Z,2.50
2022-08-01T08:33:17.702Z,2.70
2022-08-01T08:34:17.716Z,2.50
2022-08-01T08:35:23.212Z,2.40
2022-08-01T08:36:17.677Z,2.60
2022-08-01T08:37:17.662Z,2.60
2022-08-01T08:38:17.658Z,2.70
2022-08-01T08:39:20.087Z,2.60
2022-08-01T08:40:17.642Z,2.60
2022-08-01T08:41:21.172Z,2.50
2022-08-01T08:42:17.576Z,2.50
2022-08-01T08:43:17.584Z,2.40
2022-08-01T08:44:17.559Z,2.40
2022-08-01T08:45:17.544Z,2.50
2022-08-01T08:46:17.521Z,2.70
2022-08-01T08:47:20.519Z,2.40
2022-08-01T08:48:17.520Z,2.30
2022-08-01T08:49:17.623Z,2.50
2022-08-01T08:50:17.481Z,2.70
2022-08-01T08:51:17.455Z,2.40
2022-08-01T08:52:17.441Z,2.30
2022-08-01T08:53:18.677Z,2.30
2022-08-01T08:54:17.421Z,2.50
2022-08-01T08:55:17.399Z,2.20
2022-08-01T08:56:17.381Z,2.30
2022-08-01T08:57:17.374Z,2.50
2022-08-01T08:58:17.361Z,2.60
2022-08-01T08:59:17.374Z,2.70
2022-08-01T09:00:17.355Z,2.50
2022-08-01T09:01:17.328Z,2.50
2022-08-01T09:02:17.298Z,2.30
2022-08-01T09:03:17.377Z,2.60
2022-08-01T09:04:17.279Z,2.50
2022-08-01T09:05:19.699Z,2.50
2022-08-01T09:06:17.261Z,2.80
2022-08-01T09:07:17.263Z,2.50
2022-08-01T09:08:17.221Z,2.60
2022-08-01T09:09:17.213Z,2.50
2022-08-01T09:10:17.205Z,2.40
2022-08-01T09:11:22.667Z,2.70
2022-08-01T09:12:17.197Z,2.50
2022-08-01T09:13:17.195Z,2.60
2022-08-01T09:14:17.164Z,2.50
2022-08-01T09:15:17.127Z,5.00
2022-08-01T09:16:17.122Z,3.50
2022-08-01T09:17:17.112Z,3.80
2022-08-01T09:18:17.123Z,3.00
2022-08-01T09:19:40.572Z,2.60
2022-08-01T09:20:17.070Z,2.60
2022-08-01T09:21:17.084Z,2.50
2022-08-01T09:22:17.040Z,2.50
2022-08-01T09:23:17.027Z,2.60
2022-08-01T09:24:17.017Z,2.50
2022-08-01T09:25:17.009Z,2.40
2022-08-01T09:26:17.020Z,2.60
2022-08-01T09:27:16.967Z,2.50
2022-08-01T09:28:16.957Z,2.60
2022-08-01T09:29:16.996Z,2.50
2022-08-01T09:30:19.284Z,2.20
2022-08-01T09:31:16.939Z,2.40
2022-08-01T09:32:16.945Z,2.40
2022-08-01T09:33:21.474Z,2.20
2022-08-01T09:34:19.778Z,2.50
2022-08-01T09:35:16.867Z,2.50
2022-08-01T09:36:16.853Z,2.50
2022-08-01T09:37:16.868Z,2.50
2022-08-01T09:38:16.848Z,2.40
2022-08-01T09:39:16.838Z,2.60
2022-08-01T09:40:16.824Z,2.30
2022-08-01T09:41:16.807Z,2.60
2022-08-01T09:42:16.773Z,2.40
2022-08-01T09:43:16.764Z,2.30
2022-08-01T09:44:16.938Z,2.50
2022-08-01T09:45:23.191Z,2.40
2022-08-01T09:46:16.724Z,2.50
2022-08-01T09:47:16.722Z,2.50
2022-08-01T09:48:16.692Z,2.70
2022-08-01T09:49:16.782Z,2.40
2022-08-01T09:50:16.685Z,2.40
2022-08-01T09:51:58.556Z,2.40
2022-08-01T09:52:16.652Z,2.30
2022-08-01T09:53:24.316Z,2.40
2022-08-01T09:54:16.806Z,2.40
2022-08-01T09:55:16.604Z,2.50
2022-08-01T09:56:16.600Z,2.60
2022-08-01T09:57:16.584Z,2.60
2022-08-01T09:58:16.584Z,2.40
2022-08-01T09:59:16.899Z,2.40
2022-08-01T10:00:29.567Z,2.30
2022-08-01T10:01:16.552Z,2.30
2022-08-01T10:02:16.511Z,2.30
2022-08-01T10:03:16.560Z,2.50
2022-08-01T10:04:16.924Z,2.40
2022-08-01T10:05:20.909Z,2.20
2022-08-01T10:06:16.448Z,2.30
2022-08-01T10:07:16.451Z,2.30
2022-08-01T10:08:16.453Z,2.30
2022-08-01T10:09:16.449Z,2.30
2022-08-01T10:10:16.387Z,2.30
2022-08-01T10:11:16.681Z,2.40
2022-08-01T10:12:16.468Z,2.40
2022-08-01T10:13:16.378Z,2.40
2022-08-01T10:14:17.909Z,2.30
2022-08-01T10:15:16.332Z,2.20
2022-08-01T10:16:16.323Z,2.30
2022-08-01T10:17:18.468Z,2.30
2022-08-01T10:18:26.184Z,2.20
2022-08-01T10:19:16.289Z,2.20
2022-08-01T10:20:21.619Z,2.70
2022-08-01T10:21:16.257Z,2.00
2022-08-01T10:22:16.253Z,2.00
2022-08-01T10:23:16.259Z,2.10
2022-08-01T10:24:18.741Z,2.30
2022-08-01T10:25:16.209Z,1.80
2022-08-01T10:26:16.193Z,2.00
2022-08-01T10:27:16.550Z,2.20
2022-08-01T10:28:18.005Z,2.20
2022-08-01T10:29:46.332Z,2.40
2022-08-01T10:30:23.378Z,1.90
2022-08-01T10:31:16.138Z,2.00
2022-08-01T10:32:16.110Z,1.90
2022-08-01T10:33:19.993Z,1.90
2022-08-01T10:34:16.118Z,2.10
2022-08-01T10:35:16.097Z,2.10
2022-08-01T10:36:16.050Z,2.20
2022-08-01T10:37:16.040Z,2.10
2022-08-01T10:38:16.096Z,2.10
2022-08-01T10:39:16.659Z,2.00
2022-08-01T10:40:29.944Z,2.00
2022-08-01T10:41:15.998Z,2.20
2022-08-01T10:42:16.117Z,1.90
2022-08-01T10:43:21.509Z,2.10
2022-08-01T10:44:15.961Z,2.00
2022-08-01T10:45:15.935Z,1.90
2022-08-01T10:46:15.929Z,2.60
2022-08-01T10:47:20.992Z,2.40
2022-08-01T10:48:15.896Z,2.40
2022-08-01T10:49:16.003Z,2.10
2022-08-01T10:50:15.868Z,3.10
2022-08-01T10:51:18.804Z,3.20
2022-08-01T10:52:15.867Z,2.50
2022-08-01T10:53:23.159Z,2.80
2022-08-01T10:54:15.868Z,2.20
2022-08-01T10:55:15.804Z,2.30
2022-08-01T10:56:16.845Z,2.00
2022-08-01T10:57:15.782Z,1.90
2022-08-01T10:58:16.034Z,2.10
2022-08-01T10:59:15.776Z,1.90
2022-08-01T11:00:15.740Z,1.70
2022-08-01T11:01:15.912Z,1.80
2022-08-01T11:02:15.713Z,1.80
2022-08-01T11:03:15.699Z,1.80
2022-08-01T11:04:17.458Z,1.90
2022-08-01T11:05:15.666Z,1.80
2022-08-01T11:06:15.661Z,1.70
2022-08-01T11:07:15.654Z,1.70
2022-08-01T11:08:15.630Z,1.80
2022-08-01T11:09:16.500Z,1.60
2022-08-01T11:10:15.603Z,1.90
2022-08-01T11:11:15.599Z,1.80
2022-08-01T11:12:23.111Z,1.80
2022-08-01T11:13:15.622Z,1.60
2022-08-01T11:14:15.571Z,1.80
2022-08-01T11:15:15.541Z,1.70
2022-08-01T11:16:16.383Z,1.70
2022-08-01T11:17:15.536Z,1.60
2022-08-01T11:18:15.502Z,1.90
2022-08-01T11:19:15.524Z,1.70
2022-08-01T11:20:15.480Z,1.60
2022-08-01T11:21:58.062Z,1.60
2022-08-01T11:22:15.460Z,1.60
2022-08-01T11:23:15.463Z,1.70
2022-08-01T11:24:15.430Z,1.50
2022-08-01T11:25:15.409Z,1.60
2022-08-01T11:26:17.632Z,1.50
2022-08-01T11:27:15.413Z,1.50
2022-08-01T11:28:15.593Z,1.60
2022-08-01T11:29:20.432Z,1.60
2022-08-01T11:30:15.353Z,1.50
2022-08-01T11:31:15.341Z,1.70
2022-08-01T11:32:15.453Z,1.60
2022-08-01T11:33:15.312Z,1.50
2022-08-01T11:34:15.723Z,1.50
2022-08-01T11:35:17.023Z,1.60
2022-08-01T11:36:15.904Z,1.60
2022-08-01T11:37:15.481Z,1.50
2022-08-01T11:38:15.258Z,1.50
2022-08-01T11:39:15.231Z,1.50
2022-08-01T11:40:15.258Z,1.60
2022-08-01T11:41:15.225Z,1.50
2022-08-01T11:42:15.194Z,1.50
2022-08-01T11:43:15.192Z,1.70
2022-08-01T11:44:15.167Z,1.40
2022-08-01T11:45:18.413Z,1.40
2022-08-01T11:46:15.161Z,1.50
2022-08-01T11:47:15.135Z,1.60
2022-08-01T11:48:15.117Z,1.50
2022-08-01T11:49:15.134Z,1.50
2022-08-01T11:50:15.100Z,1.60
2022-08-01T11:51:21.539Z,1.30
2022-08-01T11:52:15.065Z,1.50
2022-08-01T11:53:15.042Z,1.40
2022-08-01T11:54:15.063Z,1.50
2022-08-01T11:55:16.606Z,1.40
2022-08-01T11:56:15.044Z,1.40
2022-08-01T11:57:15.006Z,1.40
2022-08-01T11:58:22.573Z,1.50
2022-08-01T11:59:15.228Z,1.30
2022-08-01T12:00:15.489Z,1.40
2022-08-01T12:01:14.944Z,1.40
2022-08-01T12:02:15.019Z,1.50
2022-08-01T12:03:18.004Z,1.50
2022-08-01T12:04:15.389Z,1.70
2022-08-01T12:05:14.894Z,1.40
2022-08-01T12:06:14.893Z,1.40
2022-08-01T12:07:14.895Z,1.30
2022-08-01T12:08:14.859Z,1.40
2022-08-01T12:09:14.841Z,1.40
2022-08-01T12:10:14.861Z,1.80
2022-08-01T12:11:14.820Z,1.60
2022-08-01T12:12:14.804Z,1.30
2022-08-01T12:13:14.817Z,1.30
2022-08-01T12:14:14.777Z,1.40
2022-08-01T12:15:14.789Z,1.20
2022-08-01T12:16:14.767Z,1.20
2022-08-01T12:17:14.741Z,1.20
2022-08-01T12:18:14.735Z,1.20
2022-08-01T12:19:14.711Z,1.40
2022-08-01T12:20:14.704Z,1.40
2022-08-01T12:21:14.711Z,1.40
2022-08-01T12:22:14.694Z,1.30
2022-08-01T12:23:14.689Z,1.60
2022-08-01T12:24:14.660Z,1.40
2022-08-01T12:25:14.640Z,1.50
2022-08-01T12:26:28.516Z,1.80
2022-08-01T12:27:14.613Z,1.40
2022-08-01T12:28:14.624Z,1.70
2022-08-01T12:29:14.586Z,1.70
2022-08-01T12:30:14.576Z,2.00
2022-08-01T12:31:14.564Z,1.30
2022-08-01T12:32:14.546Z,1.50
2022-08-01T12:33:14.575Z,1.30
2022-08-01T12:34:14.529Z,1.30
2022-08-01T12:35:18.313Z,1.40
2022-08-01T12:36:14.821Z,1.10
2022-08-01T12:37:14.508Z,1.40
2022-08-01T12:38:14.512Z,1.30
2022-08-01T12:39:14.464Z,1.50
2022-08-01T12:40:14.463Z,1.40
2022-08-01T12:41:14.447Z,1.40
2022-08-01T12:42:14.429Z,1.40
2022-08-01T12:43:21.300Z,1.40
2022-08-01T12:44:14.410Z,1.30
2022-08-01T12:45:14.550Z,1.20
2022-08-01T12:46:14.374Z,1.20
2022-08-01T12:47:14.354Z,1.30
2022-08-01T12:48:14.381Z,1.30
2022-08-01T12:49:14.381Z,1.20
2022-08-01T12:50:14.324Z,1.30
2022-08-01T12:51:14.329Z,1.20
2022-08-01T12:52:14.298Z,1.30
2022-08-01T12:53:16.724Z,1.50
2022-08-01T12:54:14.295Z,1.40
2022-08-01T12:55:14.254Z,1.60
2022-08-01T12:56:14.280Z,1.40
2022-08-01T12:57:14.227Z,1.50
2022-08-01T12:58:16.295Z,1.40
2022-08-01T12:59:14.203Z,1.30
2022-08-01T13:00:14.200Z,1.30
2022-08-01T13:01:14.518Z,1.50
2022-08-01T13:02:14.170Z,1.40
2022-08-01T13:03:14.165Z,1.40
2022-08-01T13:04:14.143Z,1.50
2022-08-01T13:05:14.149Z,1.40
2022-08-01T13:06:14.120Z,1.50
2022-08-01T13:07:14.100Z,1.50
2022-08-01T13:08:14.097Z,1.60
2022-08-01T13:09:14.071Z,1.50
2022-08-01T13:10:14.091Z,1.50
2022-08-01T13:11:14.053Z,1.90
2022-08-01T13:12:14.065Z,1.70
2022-08-01T13:13:22.136Z,3.20
2022-08-01T13:14:14.024Z,1.90
2022-08-01T13:15:14.038Z,1.50
2022-08-01T13:16:15.670Z,1.40
2022-08-01T13:17:15.691Z,1.30
2022-08-01T13:18:13.959Z,1.40